Terminal Aerodrome Forecast
Issued by NWS

Home | Current Version | Previous Version | Text Only | Print | Product List | Glossary On
Versions: 1 2 3 4 5 6 7 8 9 10 11 12
000
FTUS44 KEPZ 011120
TAFTCS
TAF
KTCS 011120Z 0112/0212 04015G25KT P6SM SCT050 BKN100
     FM011600 15015G25KT P6SM VCTS BKN060CB
     FM020200 02012KT P6SM BKN070=

USA.gov is the U.S. government's official web portal to all federal, state and local government web resources and services.